sensor_id;sensor_type;location;lat;lon;timestamp;temperature;humidity
29453;DHT22;16424;50.956;5.320;2023-07-16T00:00:11;19.40;99.90
29453;DHT22;16424;50.956;5.320;2023-07-16T00:02:46;19.30;99.90
29453;DHT22;16424;50.956;5.320;2023-07-16T00:05:12;19.20;99.90
29453;DHT22;16424;50.956;5.320;2023-07-16T00:07:45;19.20;99.90
29453;DHT22;16424;50.956;5.320;2023-07-16T00:10:12;19.10;99.90
29453;DHT22;16424;50.956;5.320;2023-07-16T00:12:43;19.10;99.90
29453;DHT22;16424;50.956;5.320;2023-07-16T00:15:13;19.00;99.90
29453;DHT22;16424;50.956;5.320;2023-07-16T00:17:41;18.80;99.90
29453;DHT22;16424;50.956;5.320;2023-07-16T00:20:13;18.60;99.90
29453;DHT22;16424;50.956;5.320;2023-07-16T00:22:39;18.60;99.90
29453;DHT22;16424;50.956;5.320;2023-07-16T00:25:08;18.60;99.90
29453;DHT22;16424;50.956;5.320;2023-07-16T00:27:40;18.50;99.90
29453;DHT22;16424;50.956;5.320;2023-07-16T00:30:12;18.50;99.90
29453;DHT22;16424;50.956;5.320;2023-07-16T00:32:43;18.50;99.90
29453;DHT22;16424;50.956;5.320;2023-07-16T00:35:09;18.40;99.90
29453;DHT22;16424;50.956;5.320;2023-07-16T00:37:42;18.30;99.90
29453;DHT22;16424;50.956;5.320;2023-07-16T00:40:10;18.20;99.90
29453;DHT22;16424;50.956;5.320;2023-07-16T00:42:42;18.30;99.90
29453;DHT22;16424;50.956;5.320;2023-07-16T00:45:16;18.30;99.90
29453;DHT22;16424;50.956;5.320;2023-07-16T00:47:51;18.30;99.90
29453;DHT22;16424;50.956;5.320;2023-07-16T00:50:20;18.40;99.90
29453;DHT22;16424;50.956;5.320;2023-07-16T00:52:52;18.40;99.90
29453;DHT22;16424;50.956;5.320;2023-07-16T00:55:27;18.30;99.90
29453;DHT22;16424;50.956;5.320;2023-07-16T00:58:06;18.40;99.90
29453;DHT22;16424;50.956;5.320;2023-07-16T01:00:41;18.40;99.90
29453;DHT22;16424;50.956;5.320;2023-07-16T01:03:11;18.40;99.90
29453;DHT22;16424;50.956;5.320;2023-07-16T01:06:02;18.30;99.90
29453;DHT22;16424;50.956;5.320;2023-07-16T01:08:41;18.30;99.90
29453;DHT22;16424;50.956;5.320;2023-07-16T01:11:16;18.30;99.90
29453;DHT22;16424;50.956;5.320;2023-07-16T01:13:43;18.30;99.90
29453;DHT22;16424;50.956;5.320;2023-07-16T01:16:24;18.30;99.90
29453;DHT22;16424;50.956;5.320;2023-07-16T01:18:55;18.30;99.90
29453;DHT22;16424;50.956;5.320;2023-07-16T01:21:23;18.20;99.90
29453;DHT22;16424;50.956;5.320;2023-07-16T01:24:17;18.00;99.90
29453;DHT22;16424;50.956;5.320;2023-07-16T01:30:14;18.00;99.90
29453;DHT22;16424;50.956;5.320;2023-07-16T01:32:51;18.00;99.90
29453;DHT22;16424;50.956;5.320;2023-07-16T01:35:32;18.00;99.90
29453;DHT22;16424;50.956;5.320;2023-07-16T01:38:16;18.10;99.90
29453;DHT22;16424;50.956;5.320;2023-07-16T01:40:44;18.10;99.90
29453;DHT22;16424;50.956;5.320;2023-07-16T01:43:13;18.00;99.90
29453;DHT22;16424;50.956;5.320;2023-07-16T01:45:46;17.90;99.90
29453;DHT22;16424;50.956;5.320;2023-07-16T01:48:30;17.90;99.90
29453;DHT22;16424;50.956;5.320;2023-07-16T01:51:21;17.80;99.90
29453;DHT22;16424;50.956;5.320;2023-07-16T01:56:58;17.80;99.90
29453;DHT22;16424;50.956;5.320;2023-07-16T01:59:29;17.80;99.90
29453;DHT22;16424;50.956;5.320;2023-07-16T02:02:12;17.80;99.90
29453;DHT22;16424;50.956;5.320;2023-07-16T02:04:44;17.70;99.90
29453;DHT22;16424;50.956;5.320;2023-07-16T02:07:16;17.60;99.90
29453;DHT22;16424;50.956;5.320;2023-07-16T02:09:50;17.50;99.90
29453;DHT22;16424;50.956;5.320;2023-07-16T02:12:21;17.50;99.90
29453;DHT22;16424;50.956;5.320;2023-07-16T02:14:47;17.60;99.90
29453;DHT22;16424;50.956;5.320;2023-07-16T02:17:16;17.60;99.90
29453;DHT22;16424;50.956;5.320;2023-07-16T02:19:55;17.60;99.90
29453;DHT22;16424;50.956;5.320;2023-07-16T02:22:25;17.60;99.90
29453;DHT22;16424;50.956;5.320;2023-07-16T02:24:56;17.60;99.90
29453;DHT22;16424;50.956;5.320;2023-07-16T02:27:24;17.70;99.90
29453;DHT22;16424;50.956;5.320;2023-07-16T02:29:57;17.70;99.90
29453;DHT22;16424;50.956;5.320;2023-07-16T02:32:31;17.60;99.90
29453;DHT22;16424;50.956;5.320;2023-07-16T02:35:03;17.60;99.90
29453;DHT22;16424;50.956;5.320;2023-07-16T02:37:33;17.60;99.90
29453;DHT22;16424;50.956;5.320;2023-07-16T02:40:03;17.50;99.90
29453;DHT22;16424;50.956;5.320;2023-07-16T02:42:29;17.40;99.90
29453;DHT22;16424;50.956;5.320;2023-07-16T02:44:55;17.30;99.90
29453;DHT22;16424;50.956;5.320;2023-07-16T02:47:21;17.20;99.90
29453;DHT22;16424;50.956;5.320;2023-07-16T02:49:51;17.20;99.90
29453;DHT22;16424;50.956;5.320;2023-07-16T02:52:21;17.00;99.90
29453;DHT22;16424;50.956;5.320;2023-07-16T02:54:48;17.00;99.90
29453;DHT22;16424;50.956;5.320;2023-07-16T02:57:14;17.00;99.90
29453;DHT22;16424;50.956;5.320;2023-07-16T02:59:42;16.90;99.90
29453;DHT22;16424;50.956;5.320;2023-07-16T03:02:08;17.00;99.90
29453;DHT22;16424;50.956;5.320;2023-07-16T03:04:34;17.00;99.90
29453;DHT22;16424;50.956;5.320;2023-07-16T03:07:01;17.10;99.90
29453;DHT22;16424;50.956;5.320;2023-07-16T03:09:30;17.20;99.90
29453;DHT22;16424;50.956;5.320;2023-07-16T03:11:58;17.20;99.90
29453;DHT22;16424;50.956;5.320;2023-07-16T03:14:26;17.40;99.90
29453;DHT22;16424;50.956;5.320;2023-07-16T03:16:58;17.40;99.90
29453;DHT22;16424;50.956;5.320;2023-07-16T03:19:24;17.30;99.90
29453;DHT22;16424;50.956;5.320;2023-07-16T03:21:53;17.20;99.90
29453;DHT22;16424;50.956;5.320;2023-07-16T03:24:20;17.10;99.90
29453;DHT22;16424;50.956;5.320;2023-07-16T03:26:51;17.10;99.90
29453;DHT22;16424;50.956;5.320;2023-07-16T03:29:20;16.90;99.90
29453;DHT22;16424;50.956;5.320;2023-07-16T03:31:46;16.90;99.90
29453;DHT22;16424;50.956;5.320;2023-07-16T03:34:14;16.80;99.90
29453;DHT22;16424;50.956;5.320;2023-07-16T03:36:40;16.70;99.90
29453;DHT22;16424;50.956;5.320;2023-07-16T03:39:06;16.80;99.90
29453;DHT22;16424;50.956;5.320;2023-07-16T03:41:32;16.70;99.90
29453;DHT22;16424;50.956;5.320;2023-07-16T03:44:01;16.80;99.90
29453;DHT22;16424;50.956;5.320;2023-07-16T03:46:27;16.80;99.90
29453;DHT22;16424;50.956;5.320;2023-07-16T03:48:53;16.80;99.90
29453;DHT22;16424;50.956;5.320;2023-07-16T03:51:19;16.90;99.90
29453;DHT22;16424;50.956;5.320;2023-07-16T03:53:45;16.90;99.90
29453;DHT22;16424;50.956;5.320;2023-07-16T03:56:11;17.00;99.90
29453;DHT22;16424;50.956;5.320;2023-07-16T03:58:40;16.90;99.90
29453;DHT22;16424;50.956;5.320;2023-07-16T04:01:06;16.80;99.90
29453;DHT22;16424;50.956;5.320;2023-07-16T04:03:35;16.80;99.90
29453;DHT22;16424;50.956;5.320;2023-07-16T04:06:05;16.80;99.90
29453;DHT22;16424;50.956;5.320;2023-07-16T04:08:31;16.80;99.90
29453;DHT22;16424;50.956;5.320;2023-07-16T04:10:58;16.90;99.90
29453;DHT22;16424;50.956;5.320;2023-07-16T04:13:24;16.70;99.90
29453;DHT22;16424;50.956;5.320;2023-07-16T04:15:52;16.80;99.90
29453;DHT22;16424;50.956;5.320;2023-07-16T04:18:22;17.00;99.90
29453;DHT22;16424;50.956;5.320;2023-07-16T04:20:48;17.00;99.90
29453;DHT22;16424;50.956;5.320;2023-07-16T04:23:17;16.80;99.90
29453;DHT22;16424;50.956;5.320;2023-07-16T04:25:43;16.70;99.90
29453;DHT22;16424;50.956;5.320;2023-07-16T04:28:10;16.70;99.90
29453;DHT22;16424;50.956;5.320;2023-07-16T04:30:36;16.60;99.90
29453;DHT22;16424;50.956;5.320;2023-07-16T04:33:08;16.60;99.90
29453;DHT22;16424;50.956;5.320;2023-07-16T04:35:35;16.50;99.90
29453;DHT22;16424;50.956;5.320;2023-07-16T04:38:01;16.50;99.90
29453;DHT22;16424;50.956;5.320;2023-07-16T04:40:29;16.50;99.90
29453;DHT22;16424;50.956;5.320;2023-07-16T04:42:55;16.70;99.90
29453;DHT22;16424;50.956;5.320;2023-07-16T04:45:20;16.60;99.90
29453;DHT22;16424;50.956;5.320;2023-07-16T04:47:46;16.80;99.90
29453;DHT22;16424;50.956;5.320;2023-07-16T04:50:12;16.90;99.90
29453;DHT22;16424;50.956;5.320;2023-07-16T04:52:38;16.80;99.90
29453;DHT22;16424;50.956;5.320;2023-07-16T04:55:05;16.90;99.90
29453;DHT22;16424;50.956;5.320;2023-07-16T04:57:32;16.80;99.90
29453;DHT22;16424;50.956;5.320;2023-07-16T04:59:59;16.60;99.90
29453;DHT22;16424;50.956;5.320;2023-07-16T05:02:25;16.90;99.90
29453;DHT22;16424;50.956;5.320;2023-07-16T05:04:51;16.90;99.90
29453;DHT22;16424;50.956;5.320;2023-07-16T05:07:20;17.10;99.90
29453;DHT22;16424;50.956;5.320;2023-07-16T05:09:46;17.10;99.90
29453;DHT22;16424;50.956;5.320;2023-07-16T05:12:12;17.10;99.90
29453;DHT22;16424;50.956;5.320;2023-07-16T05:14:46;17.10;99.90
29453;DHT22;16424;50.956;5.320;2023-07-16T05:17:13;17.10;99.90
29453;DHT22;16424;50.956;5.320;2023-07-16T05:19:40;17.20;99.90
29453;DHT22;16424;50.956;5.320;2023-07-16T05:22:08;17.30;99.90
29453;DHT22;16424;50.956;5.320;2023-07-16T05:24:34;17.40;99.90
29453;DHT22;16424;50.956;5.320;2023-07-16T05:27:00;17.40;99.90
29453;DHT22;16424;50.956;5.320;2023-07-16T05:29:27;17.30;99.90
29453;DHT22;16424;50.956;5.320;2023-07-16T05:31:55;17.40;99.90
29453;DHT22;16424;50.956;5.320;2023-07-16T05:34:23;17.60;99.90
29453;DHT22;16424;50.956;5.320;2023-07-16T05:36:54;17.70;99.90
29453;DHT22;16424;50.956;5.320;2023-07-16T05:39:25;17.90;99.90
29453;DHT22;16424;50.956;5.320;2023-07-16T05:41:57;18.40;99.90
29453;DHT22;16424;50.956;5.320;2023-07-16T05:44:35;19.30;99.90
29453;DHT22;16424;50.956;5.320;2023-07-16T05:47:04;19.80;99.90
29453;DHT22;16424;50.956;5.320;2023-07-16T05:49:30;20.70;99.90
29453;DHT22;16424;50.956;5.320;2023-07-16T05:51:57;21.70;99.90
29453;DHT22;16424;50.956;5.320;2023-07-16T05:54:23;22.20;99.90
29453;DHT22;16424;50.956;5.320;2023-07-16T05:56:49;22.00;99.90
29453;DHT22;16424;50.956;5.320;2023-07-16T05:59:15;22.10;99.90
29453;DHT22;16424;50.956;5.320;2023-07-16T06:01:41;22.60;99.90
29453;DHT22;16424;50.956;5.320;2023-07-16T06:04:07;23.60;99.90
29453;DHT22;16424;50.956;5.320;2023-07-16T06:06:33;24.30;99.90
29453;DHT22;16424;50.956;5.320;2023-07-16T06:08:59;23.90;99.90
29453;DHT22;16424;50.956;5.320;2023-07-16T06:11:25;23.80;99.90
29453;DHT22;16424;50.956;5.320;2023-07-16T06:13:53;23.60;99.90
29453;DHT22;16424;50.956;5.320;2023-07-16T06:16:20;23.10;99.90
29453;DHT22;16424;50.956;5.320;2023-07-16T06:18:46;23.90;99.90
29453;DHT22;16424;50.956;5.320;2023-07-16T06:21:12;24.20;99.90
29453;DHT22;16424;50.956;5.320;2023-07-16T06:23:38;24.00;99.90
29453;DHT22;16424;50.956;5.320;2023-07-16T06:26:04;24.40;99.90
29453;DHT22;16424;50.956;5.320;2023-07-16T06:28:30;23.30;99.90
29453;DHT22;16424;50.956;5.320;2023-07-16T06:30:56;24.10;99.90
29453;DHT22;16424;50.956;5.320;2023-07-16T06:33:22;24.60;99.90
29453;DHT22;16424;50.956;5.320;2023-07-16T06:35:48;23.60;99.90
29453;DHT22;16424;50.956;5.320;2023-07-16T06:38:14;23.60;99.90
29453;DHT22;16424;50.956;5.320;2023-07-16T06:40:46;24.10;99.90
29453;DHT22;16424;50.956;5.320;2023-07-16T06:43:12;24.50;99.90
29453;DHT22;16424;50.956;5.320;2023-07-16T06:45:38;25.40;99.90
29453;DHT22;16424;50.956;5.320;2023-07-16T06:48:05;25.30;99.90
29453;DHT22;16424;50.956;5.320;2023-07-16T06:50:30;25.00;99.90
29453;DHT22;16424;50.956;5.320;2023-07-16T06:52:56;25.50;99.90
29453;DHT22;16424;50.956;5.320;2023-07-16T06:55:22;26.20;99.90
29453;DHT22;16424;50.956;5.320;2023-07-16T06:57:48;26.10;99.90
29453;DHT22;16424;50.956;5.320;2023-07-16T07:00:14;25.80;99.90
29453;DHT22;16424;50.956;5.320;2023-07-16T07:02:41;26.50;99.90
29453;DHT22;16424;50.956;5.320;2023-07-16T07:05:07;27.00;99.90
29453;DHT22;16424;50.956;5.320;2023-07-16T07:07:33;25.60;99.90
29453;DHT22;16424;50.956;5.320;2023-07-16T07:09:59;25.40;99.90
29453;DHT22;16424;50.956;5.320;2023-07-16T07:12:25;25.60;99.90
29453;DHT22;16424;50.956;5.320;2023-07-16T07:14:51;25.60;99.90
29453;DHT22;16424;50.956;5.320;2023-07-16T07:17:17;25.20;99.90
29453;DHT22;16424;50.956;5.320;2023-07-16T07:19:43;25.50;99.90
29453;DHT22;16424;50.956;5.320;2023-07-16T07:22:09;25.20;99.90
29453;DHT22;16424;50.956;5.320;2023-07-16T07:24:35;24.90;99.90
29453;DHT22;16424;50.956;5.320;2023-07-16T07:27:02;25.60;99.90
29453;DHT22;16424;50.956;5.320;2023-07-16T07:29:28;25.40;99.90
29453;DHT22;16424;50.956;5.320;2023-07-16T07:31:53;25.50;99.90
29453;DHT22;16424;50.956;5.320;2023-07-16T07:34:19;24.80;99.90
29453;DHT22;16424;50.956;5.320;2023-07-16T07:36:46;25.40;99.90
29453;DHT22;16424;50.956;5.320;2023-07-16T07:39:12;26.50;99.90
29453;DHT22;16424;50.956;5.320;2023-07-16T07:41:42;26.90;99.90
29453;DHT22;16424;50.956;5.320;2023-07-16T07:44:08;27.40;99.90
29453;DHT22;16424;50.956;5.320;2023-07-16T07:46:34;26.80;99.90
29453;DHT22;16424;50.956;5.320;2023-07-16T07:49:00;26.90;99.90
29453;DHT22;16424;50.956;5.320;2023-07-16T07:51:26;27.00;99.90
29453;DHT22;16424;50.956;5.320;2023-07-16T07:53:52;27.60;99.90
29453;DHT22;16424;50.956;5.320;2023-07-16T07:56:18;26.50;99.90
29453;DHT22;16424;50.956;5.320;2023-07-16T07:58:44;25.80;99.90
29453;DHT22;16424;50.956;5.320;2023-07-16T08:01:10;25.70;99.90
29453;DHT22;16424;50.956;5.320;2023-07-16T08:03:36;26.30;99.90
29453;DHT22;16424;50.956;5.320;2023-07-16T08:06:01;27.10;99.90
29453;DHT22;16424;50.956;5.320;2023-07-16T08:08:28;28.10;99.90
29453;DHT22;16424;50.956;5.320;2023-07-16T08:10:55;27.20;99.90
29453;DHT22;16424;50.956;5.320;2023-07-16T08:13:21;26.70;99.90
29453;DHT22;16424;50.956;5.320;2023-07-16T08:15:47;27.40;99.90
29453;DHT22;16424;50.956;5.320;2023-07-16T08:18:15;26.50;99.90
29453;DHT22;16424;50.956;5.320;2023-07-16T08:20:41;26.80;99.90
29453;DHT22;16424;50.956;5.320;2023-07-16T08:23:07;26.10;99.90
29453;DHT22;16424;50.956;5.320;2023-07-16T08:25:33;26.70;99.90
29453;DHT22;16424;50.956;5.320;2023-07-16T08:28:01;27.20;99.90
29453;DHT22;16424;50.956;5.320;2023-07-16T08:30:27;27.40;99.70
29453;DHT22;16424;50.956;5.320;2023-07-16T08:32:53;28.20;99.60
29453;DHT22;16424;50.956;5.320;2023-07-16T08:35:19;28.80;98.80
29453;DHT22;16424;50.956;5.320;2023-07-16T08:37:46;28.50;98.40
29453;DHT22;16424;50.956;5.320;2023-07-16T08:40:12;27.20;98.70
29453;DHT22;16424;50.956;5.320;2023-07-16T08:42:39;27.60;98.90
29453;DHT22;16424;50.956;5.320;2023-07-16T08:45:10;28.30;99.10
29453;DHT22;16424;50.956;5.320;2023-07-16T08:47:36;28.60;98.40
29453;DHT22;16424;50.956;5.320;2023-07-16T08:50:03;29.30;97.80
29453;DHT22;16424;50.956;5.320;2023-07-16T08:52:29;29.20;96.70
29453;DHT22;16424;50.956;5.320;2023-07-16T08:54:56;27.00;98.30
29453;DHT22;16424;50.956;5.320;2023-07-16T08:57:23;26.80;99.90
29453;DHT22;16424;50.956;5.320;2023-07-16T08:59:50;27.40;99.60
29453;DHT22;16424;50.956;5.320;2023-07-16T09:02:19;26.60;99.80
29453;DHT22;16424;50.956;5.320;2023-07-16T09:04:49;27.50;99.00
29453;DHT22;16424;50.956;5.320;2023-07-16T09:07:18;27.40;99.10
29453;DHT22;16424;50.956;5.320;2023-07-16T09:09:55;27.00;99.40
29453;DHT22;16424;50.956;5.320;2023-07-16T09:12:24;27.00;98.90
29453;DHT22;16424;50.956;5.320;2023-07-16T09:14:50;27.70;98.80
29453;DHT22;16424;50.956;5.320;2023-07-16T09:17:25;27.80;99.10
29453;DHT22;16424;50.956;5.320;2023-07-16T09:19:51;27.20;98.90
29453;DHT22;16424;50.956;5.320;2023-07-16T09:22:18;27.30;98.80
29453;DHT22;16424;50.956;5.320;2023-07-16T09:24:48;27.50;97.70
29453;DHT22;16424;50.956;5.320;2023-07-16T09:27:14;27.20;98.30
29453;DHT22;16424;50.956;5.320;2023-07-16T09:29:40;27.20;98.40
29453;DHT22;16424;50.956;5.320;2023-07-16T09:32:06;26.50;99.30
29453;DHT22;16424;50.956;5.320;2023-07-16T09:34:32;26.00;99.90
29453;DHT22;16424;50.956;5.320;2023-07-16T09:36:59;25.40;99.90
29453;DHT22;16424;50.956;5.320;2023-07-16T09:39:26;25.40;99.90
29453;DHT22;16424;50.956;5.320;2023-07-16T09:41:53;25.10;99.90
29453;DHT22;16424;50.956;5.320;2023-07-16T09:44:19;24.80;99.90
29453;DHT22;16424;50.956;5.320;2023-07-16T09:46:46;24.20;99.90
29453;DHT22;16424;50.956;5.320;2023-07-16T09:49:14;24.10;99.90
29453;DHT22;16424;50.956;5.320;2023-07-16T09:51:42;24.10;99.90
29453;DHT22;16424;50.956;5.320;2023-07-16T09:54:09;24.30;99.90
29453;DHT22;16424;50.956;5.320;2023-07-16T09:56:45;24.00;99.90
29453;DHT22;16424;50.956;5.320;2023-07-16T09:59:15;23.80;99.90
29453;DHT22;16424;50.956;5.320;2023-07-16T10:01:42;23.70;99.90
29453;DHT22;16424;50.956;5.320;2023-07-16T10:04:15;24.00;99.90
29453;DHT22;16424;50.956;5.320;2023-07-16T10:06:57;24.00;99.90
29453;DHT22;16424;50.956;5.320;2023-07-16T10:09:41;24.10;99.90
29453;DHT22;16424;50.956;5.320;2023-07-16T10:12:14;23.90;99.90
29453;DHT22;16424;50.956;5.320;2023-07-16T10:14:48;23.80;99.90
29453;DHT22;16424;50.956;5.320;2023-07-16T10:17:25;23.90;99.90
29453;DHT22;16424;50.956;5.320;2023-07-16T10:20:07;23.90;99.90
29453;DHT22;16424;50.956;5.320;2023-07-16T10:22:42;24.00;99.90
29453;DHT22;16424;50.956;5.320;2023-07-16T10:27:43;23.70;99.90
29453;DHT22;16424;50.956;5.320;2023-07-16T10:30:09;23.80;99.90
29453;DHT22;16424;50.956;5.320;2023-07-16T10:32:35;23.90;99.90
29453;DHT22;16424;50.956;5.320;2023-07-16T10:35:01;23.40;99.90
29453;DHT22;16424;50.956;5.320;2023-07-16T10:37:28;23.30;99.90
29453;DHT22;16424;50.956;5.320;2023-07-16T10:39:56;23.40;99.90
29453;DHT22;16424;50.956;5.320;2023-07-16T10:42:23;23.40;99.90
29453;DHT22;16424;50.956;5.320;2023-07-16T10:45:03;23.50;99.90
29453;DHT22;16424;50.956;5.320;2023-07-16T10:47:34;23.70;99.90
29453;DHT22;16424;50.956;5.320;2023-07-16T10:50:03;23.50;99.90
29453;DHT22;16424;50.956;5.320;2023-07-16T10:52:29;23.20;99.90
29453;DHT22;16424;50.956;5.320;2023-07-16T10:54:55;23.50;99.90
29453;DHT22;16424;50.956;5.320;2023-07-16T10:57:24;23.90;99.90
29453;DHT22;16424;50.956;5.320;2023-07-16T10:59:52;23.90;99.90
29453;DHT22;16424;50.956;5.320;2023-07-16T11:02:20;23.70;99.90
29453;DHT22;16424;50.956;5.320;2023-07-16T11:04:47;23.20;99.90
29453;DHT22;16424;50.956;5.320;2023-07-16T11:07:14;23.10;99.90
29453;DHT22;16424;50.956;5.320;2023-07-16T11:12:10;23.60;99.90
29453;DHT22;16424;50.956;5.320;2023-07-16T11:14:36;23.30;99.90
29453;DHT22;16424;50.956;5.320;2023-07-16T11:17:07;23.60;99.90
29453;DHT22;16424;50.956;5.320;2023-07-16T11:19:35;23.80;99.90
29453;DHT22;16424;50.956;5.320;2023-07-16T11:22:02;24.00;99.90
29453;DHT22;16424;50.956;5.320;2023-07-16T11:24:29;24.00;99.90
29453;DHT22;16424;50.956;5.320;2023-07-16T11:27:01;23.90;99.90
29453;DHT22;16424;50.956;5.320;2023-07-16T11:29:34;24.20;99.90
29453;DHT22;16424;50.956;5.320;2023-07-16T11:32:00;24.10;99.90
29453;DHT22;16424;50.956;5.320;2023-07-16T11:34:26;23.90;99.90
29453;DHT22;16424;50.956;5.320;2023-07-16T11:36:52;23.80;99.90
29453;DHT22;16424;50.956;5.320;2023-07-16T11:39:18;23.70;99.90
29453;DHT22;16424;50.956;5.320;2023-07-16T11:41:58;24.00;99.90
29453;DHT22;16424;50.956;5.320;2023-07-16T11:44:24;24.50;99.90
29453;DHT22;16424;50.956;5.320;2023-07-16T11:46:50;24.80;99.90
29453;DHT22;16424;50.956;5.320;2023-07-16T11:49:16;25.00;99.90
29453;DHT22;16424;50.956;5.320;2023-07-16T11:51:42;24.70;99.90
29453;DHT22;16424;50.956;5.320;2023-07-16T11:54:10;24.80;99.90
29453;DHT22;16424;50.956;5.320;2023-07-16T11:56:36;24.60;99.90
29453;DHT22;16424;50.956;5.320;2023-07-16T11:59:02;24.80;99.90
29453;DHT22;16424;50.956;5.320;2023-07-16T12:01:28;24.80;99.90
29453;DHT22;16424;50.956;5.320;2023-07-16T12:03:54;25.10;99.90
29453;DHT22;16424;50.956;5.320;2023-07-16T12:06:20;24.60;99.90
29453;DHT22;16424;50.956;5.320;2023-07-16T12:08:46;25.30;99.90
29453;DHT22;16424;50.956;5.320;2023-07-16T12:11:11;25.60;99.90
29453;DHT22;16424;50.956;5.320;2023-07-16T12:13:37;25.20;99.90
29453;DHT22;16424;50.956;5.320;2023-07-16T12:16:03;25.10;99.90
29453;DHT22;16424;50.956;5.320;2023-07-16T12:18:29;25.30;99.90
29453;DHT22;16424;50.956;5.320;2023-07-16T12:20:56;25.20;99.90
29453;DHT22;16424;50.956;5.320;2023-07-16T12:23:22;24.90;99.90
29453;DHT22;16424;50.956;5.320;2023-07-16T12:25:48;24.90;99.90
29453;DHT22;16424;50.956;5.320;2023-07-16T12:28:15;24.90;99.90
29453;DHT22;16424;50.956;5.320;2023-07-16T12:30:41;25.10;99.90
29453;DHT22;16424;50.956;5.320;2023-07-16T12:33:06;25.30;99.90
29453;DHT22;16424;50.956;5.320;2023-07-16T12:35:32;25.20;99.90
29453;DHT22;16424;50.956;5.320;2023-07-16T12:38:01;25.10;99.90
29453;DHT22;16424;50.956;5.320;2023-07-16T12:40:29;25.10;99.90
29453;DHT22;16424;50.956;5.320;2023-07-16T12:42:56;25.00;99.90
29453;DHT22;16424;50.956;5.320;2023-07-16T12:45:21;25.20;99.90
29453;DHT22;16424;50.956;5.320;2023-07-16T12:47:47;25.60;99.90
29453;DHT22;16424;50.956;5.320;2023-07-16T12:50:13;25.40;99.80
29453;DHT22;16424;50.956;5.320;2023-07-16T12:52:39;25.50;99.40
29453;DHT22;16424;50.956;5.320;2023-07-16T12:55:05;25.20;99.80
29453;DHT22;16424;50.956;5.320;2023-07-16T12:57:30;25.40;99.90
29453;DHT22;16424;50.956;5.320;2023-07-16T12:59:57;25.60;99.90
29453;DHT22;16424;50.956;5.320;2023-07-16T13:02:23;25.60;99.30
29453;DHT22;16424;50.956;5.320;2023-07-16T13:04:49;25.20;99.90
29453;DHT22;16424;50.956;5.320;2023-07-16T13:07:14;25.50;99.30
29453;DHT22;16424;50.956;5.320;2023-07-16T13:09:40;25.30;99.10
29453;DHT22;16424;50.956;5.320;2023-07-16T13:12:06;25.00;99.90
29453;DHT22;16424;50.956;5.320;2023-07-16T13:14:32;25.00;99.90
29453;DHT22;16424;50.956;5.320;2023-07-16T13:16:58;24.90;99.90
29453;DHT22;16424;50.956;5.320;2023-07-16T13:19:23;24.60;99.90
29453;DHT22;16424;50.956;5.320;2023-07-16T13:21:49;24.90;99.90
29453;DHT22;16424;50.956;5.320;2023-07-16T13:24:15;25.10;99.90
29453;DHT22;16424;50.956;5.320;2023-07-16T13:26:40;25.00;99.90
29453;DHT22;16424;50.956;5.320;2023-07-16T13:29:06;25.00;99.90
29453;DHT22;16424;50.956;5.320;2023-07-16T13:31:32;24.90;99.90
29453;DHT22;16424;50.956;5.320;2023-07-16T13:33:58;24.90;99.90
29453;DHT22;16424;50.956;5.320;2023-07-16T13:36:23;24.80;99.90
29453;DHT22;16424;50.956;5.320;2023-07-16T13:38:49;25.10;99.90
29453;DHT22;16424;50.956;5.320;2023-07-16T13:41:15;25.30;99.90
29453;DHT22;16424;50.956;5.320;2023-07-16T13:43:40;25.30;99.80
29453;DHT22;16424;50.956;5.320;2023-07-16T13:46:06;25.00;99.90
29453;DHT22;16424;50.956;5.320;2023-07-16T13:48:32;24.90;99.90
29453;DHT22;16424;50.956;5.320;2023-07-16T13:50:58;24.90;99.90
29453;DHT22;16424;50.956;5.320;2023-07-16T13:53:24;24.60;99.90
29453;DHT22;16424;50.956;5.320;2023-07-16T13:55:50;24.90;99.90
29453;DHT22;16424;50.956;5.320;2023-07-16T13:58:16;24.60;99.90
29453;DHT22;16424;50.956;5.320;2023-07-16T14:00:42;24.60;99.90
29453;DHT22;16424;50.956;5.320;2023-07-16T14:03:08;24.80;99.90
29453;DHT22;16424;50.956;5.320;2023-07-16T14:05:34;25.00;99.90
29453;DHT22;16424;50.956;5.320;2023-07-16T14:08:04;24.80;99.30
29453;DHT22;16424;50.956;5.320;2023-07-16T14:10:30;24.90;99.50
29453;DHT22;16424;50.956;5.320;2023-07-16T14:12:56;25.10;99.70
29453;DHT22;16424;50.956;5.320;2023-07-16T14:15:23;25.20;98.30
29453;DHT22;16424;50.956;5.320;2023-07-16T14:17:49;25.40;98.60
29453;DHT22;16424;50.956;5.320;2023-07-16T14:20:15;25.70;98.20
29453;DHT22;16424;50.956;5.320;2023-07-16T14:22:41;25.90;98.10
29453;DHT22;16424;50.956;5.320;2023-07-16T14:25:07;25.90;98.50
29453;DHT22;16424;50.956;5.320;2023-07-16T14:27:34;25.70;97.80
29453;DHT22;16424;50.956;5.320;2023-07-16T14:30:01;25.60;98.40
29453;DHT22;16424;50.956;5.320;2023-07-16T14:32:27;25.70;97.30
29453;DHT22;16424;50.956;5.320;2023-07-16T14:34:54;25.40;97.30
29453;DHT22;16424;50.956;5.320;2023-07-16T14:37:20;25.10;97.30
29453;DHT22;16424;50.956;5.320;2023-07-16T14:39:46;25.50;98.50
29453;DHT22;16424;50.956;5.320;2023-07-16T14:42:13;26.00;97.90
29453;DHT22;16424;50.956;5.320;2023-07-16T14:44:39;25.80;96.90
29453;DHT22;16424;50.956;5.320;2023-07-16T14:47:05;25.50;97.30
29453;DHT22;16424;50.956;5.320;2023-07-16T14:49:32;25.50;97.60
29453;DHT22;16424;50.956;5.320;2023-07-16T14:51:58;25.30;97.90
29453;DHT22;16424;50.956;5.320;2023-07-16T14:54:24;25.10;97.70
29453;DHT22;16424;50.956;5.320;2023-07-16T14:56:49;25.20;98.00
29453;DHT22;16424;50.956;5.320;2023-07-16T14:59:15;25.20;98.00
29453;DHT22;16424;50.956;5.320;2023-07-16T15:01:43;25.20;97.90
29453;DHT22;16424;50.956;5.320;2023-07-16T15:04:09;25.00;98.40
29453;DHT22;16424;50.956;5.320;2023-07-16T15:06:35;24.80;97.90
29453;DHT22;16424;50.956;5.320;2023-07-16T15:09:01;24.80;98.40
29453;DHT22;16424;50.956;5.320;2023-07-16T15:11:27;24.80;98.30
29453;DHT22;16424;50.956;5.320;2023-07-16T15:13:53;24.80;98.40
29453;DHT22;16424;50.956;5.320;2023-07-16T15:16:19;24.80;98.40
29453;DHT22;16424;50.956;5.320;2023-07-16T15:18:45;24.80;98.50
29453;DHT22;16424;50.956;5.320;2023-07-16T15:21:11;24.80;98.70
29453;DHT22;16424;50.956;5.320;2023-07-16T15:23:37;24.80;98.40
29453;DHT22;16424;50.956;5.320;2023-07-16T15:26:04;24.60;98.40
29453;DHT22;16424;50.956;5.320;2023-07-16T15:28:32;24.70;98.50
29453;DHT22;16424;50.956;5.320;2023-07-16T15:31:02;24.50;98.40
29453;DHT22;16424;50.956;5.320;2023-07-16T15:33:28;24.40;98.90
29453;DHT22;16424;50.956;5.320;2023-07-16T15:35:57;24.50;99.10
29453;DHT22;16424;50.956;5.320;2023-07-16T15:38:23;24.40;99.20
29453;DHT22;16424;50.956;5.320;2023-07-16T15:40:49;24.50;99.30
29453;DHT22;16424;50.956;5.320;2023-07-16T15:43:15;24.70;99.90
29453;DHT22;16424;50.956;5.320;2023-07-16T15:45:41;25.00;99.30